createdAt,value
2022-10-02T00:00:47.750Z,99.53
2022-10-02T00:22:34.309Z,96.87
2022-10-02T00:25:40.188Z,96.87
2022-10-02T00:28:48.952Z,98.63
2022-10-02T00:31:58.176Z,98.76
2022-10-02T00:35:00.606Z,98.67
2022-10-02T00:38:03.335Z,98.84
2022-10-02T00:41:09.000Z,98.91
2022-10-02T00:44:26.768Z,99.40
2022-10-02T00:47:39.481Z,99.41
2022-10-02T00:51:02.455Z,99.87
2022-10-02T00:54:23.936Z,99.40
2022-10-02T00:57:45.675Z,100.00
2022-10-02T01:00:49.779Z,100.00
2022-10-02T01:03:56.677Z,100.00
2022-10-02T01:06:59.241Z,100.00
2022-10-02T01:10:01.906Z,100.00
2022-10-02T01:13:04.985Z,100.00
2022-10-02T01:16:09.664Z,100.00
2022-10-02T01:19:31.823Z,100.00
2022-10-02T01:22:36.110Z,100.00
2022-10-02T01:25:38.796Z,100.00
2022-10-02T01:28:41.561Z,100.00
2022-10-02T01:31:44.006Z,100.00
2022-10-02T01:34:46.977Z,100.00
2022-10-02T01:37:49.687Z,100.00
2022-10-02T01:40:52.597Z,100.00
2022-10-02T01:43:56.202Z,100.00
2022-10-02T01:47:10.817Z,100.00
2022-10-02T01:50:18.105Z,100.00
2022-10-02T01:53:35.760Z,100.00
2022-10-02T01:56:47.434Z,100.00
2022-10-02T01:59:49.988Z,100.00
2022-10-02T02:02:52.915Z,100.00
2022-10-02T02:06:03.746Z,100.00
2022-10-02T02:09:09.166Z,100.00
2022-10-02T02:12:13.122Z,100.00
2022-10-02T02:15:34.361Z,100.00
2022-10-02T02:18:48.215Z,100.00
2022-10-02T02:21:54.684Z,100.00
2022-10-02T02:25:02.947Z,100.00
2022-10-02T02:28:06.892Z,100.00
2022-10-02T02:31:10.374Z,100.00
2022-10-02T02:34:13.809Z,100.00
2022-10-02T02:37:19.265Z,100.00
2022-10-02T02:40:24.046Z,100.00
2022-10-02T02:43:31.796Z,100.00
2022-10-02T02:46:56.848Z,99.77
2022-10-02T02:50:01.276Z,100.00
2022-10-02T02:53:06.145Z,99.90
2022-10-02T02:56:10.354Z,100.00
2022-10-02T02:59:14.667Z,100.00
2022-10-02T03:02:17.493Z,100.00
2022-10-02T03:05:22.065Z,100.00
2022-10-02T03:08:27.040Z,100.00
2022-10-02T03:11:33.225Z,100.00
2022-10-02T03:14:40.078Z,100.00
2022-10-02T03:17:49.831Z,100.00
2022-10-02T03:20:55.280Z,100.00
2022-10-02T03:24:16.248Z,100.00
2022-10-02T03:27:31.387Z,100.00
2022-10-02T03:30:37.538Z,100.00
2022-10-02T03:33:40.283Z,100.00
2022-10-02T03:36:42.831Z,100.00
2022-10-02T03:39:45.654Z,100.00
2022-10-02T03:42:48.110Z,100.00
2022-10-02T03:45:51.835Z,100.00
2022-10-02T03:48:56.690Z,100.00
2022-10-02T03:51:59.429Z,100.00
2022-10-02T03:55:04.249Z,100.00
2022-10-02T03:58:10.899Z,100.00
2022-10-02T04:01:32.327Z,100.00
2022-10-02T04:04:39.962Z,100.00
2022-10-02T04:07:42.711Z,100.00
2022-10-02T04:10:45.489Z,100.00
2022-10-02T04:13:49.105Z,100.00
2022-10-02T04:17:03.367Z,100.00
2022-10-02T04:20:17.185Z,100.00
2022-10-02T04:23:21.877Z,100.00
2022-10-02T04:26:25.811Z,100.00
2022-10-02T04:29:32.436Z,100.00
2022-10-02T04:32:36.086Z,100.00
2022-10-02T04:35:51.166Z,100.00
2022-10-02T04:39:02.577Z,100.00
2022-10-02T04:42:09.627Z,100.00
2022-10-02T04:45:28.018Z,100.00
2022-10-02T04:48:34.428Z,100.00
2022-10-02T04:51:41.423Z,100.00
2022-10-02T04:55:15.955Z,100.00
2022-10-02T04:58:25.064Z,100.00
2022-10-02T05:01:43.331Z,100.00
2022-10-02T05:04:53.221Z,100.00
2022-10-02T05:08:17.915Z,100.00
2022-10-02T05:11:23.490Z,100.00
2022-10-02T05:14:35.405Z,100.00
2022-10-02T05:17:53.190Z,100.00
2022-10-02T05:20:58.948Z,100.00
2022-10-02T05:24:08.521Z,100.00
2022-10-02T05:27:17.427Z,100.00
2022-10-02T05:30:20.046Z,100.00
2022-10-02T05:33:31.830Z,100.00
2022-10-02T05:36:46.848Z,100.00
2022-10-02T05:39:57.240Z,100.00
2022-10-02T05:42:59.695Z,100.00
2022-10-02T05:46:04.100Z,100.00
2022-10-02T05:49:07.665Z,100.00
2022-10-02T05:52:14.246Z,100.00
2022-10-02T05:55:17.652Z,100.00
2022-10-02T05:58:27.777Z,100.00
2022-10-02T06:01:31.238Z,100.00
2022-10-02T06:04:34.495Z,100.00
2022-10-02T06:07:37.616Z,100.00
2022-10-02T06:10:51.115Z,100.00
2022-10-02T06:13:55.323Z,100.00
2022-10-02T06:16:59.731Z,100.00
2022-10-02T06:20:09.415Z,98.75
2022-10-02T06:23:13.553Z,97.58
2022-10-02T06:26:25.212Z,98.77
2022-10-02T06:29:29.609Z,97.86
2022-10-02T06:32:39.634Z,98.22
2022-10-02T06:35:45.536Z,97.84
2022-10-02T06:39:06.810Z,97.63
2022-10-02T06:42:18.140Z,97.52
2022-10-02T06:45:23.858Z,98.01
2022-10-02T07:01:25.533Z,96.33
2022-10-02T07:04:52.359Z,92.76
2022-10-02T07:08:03.192Z,87.79
2022-10-02T07:11:08.891Z,86.58
2022-10-02T07:14:41.216Z,86.52
2022-10-02T07:17:44.146Z,84.37
2022-10-02T07:20:55.884Z,83.01
2022-10-02T07:24:22.225Z,83.30
2022-10-02T07:27:44.853Z,82.65
2022-10-02T07:30:54.678Z,82.52
2022-10-02T07:38:06.185Z,81.73
2022-10-02T07:41:30.443Z,82.26
2022-10-02T07:44:44.807Z,82.81
2022-10-02T07:48:04.222Z,80.62
2022-10-02T07:51:37.927Z,80.36
2022-10-02T07:54:41.214Z,79.38
2022-10-02T07:57:49.706Z,79.52
2022-10-02T08:00:54.144Z,77.72
2022-10-02T08:04:03.875Z,76.74
2022-10-02T08:07:06.860Z,77.18
2022-10-02T08:10:11.495Z,76.92
2022-10-02T08:16:46.883Z,75.87
2022-10-02T08:19:50.191Z,74.22
2022-10-02T08:23:13.331Z,73.94
2022-10-02T08:26:23.388Z,76.06
2022-10-02T08:29:28.231Z,76.54
2022-10-02T08:32:34.678Z,73.96
2022-10-02T08:36:00.603Z,74.10
2022-10-02T08:39:03.427Z,75.25
2022-10-02T08:42:20.373Z,74.03
2022-10-02T08:45:41.537Z,73.71
2022-10-02T08:48:55.050Z,73.90
2022-10-02T08:52:16.323Z,74.02
2022-10-02T08:55:31.383Z,72.99
2022-10-02T08:58:53.453Z,71.96
2022-10-02T09:02:02.439Z,71.92
2022-10-02T09:05:23.617Z,69.83
2022-10-02T09:08:29.673Z,70.27
2022-10-02T09:11:48.350Z,70.29
2022-10-02T09:15:10.535Z,69.47
2022-10-02T09:21:52.036Z,67.56
2022-10-02T09:25:00.507Z,65.89
2022-10-02T09:28:13.081Z,65.04
2022-10-02T09:31:16.289Z,65.12
2022-10-02T09:34:38.578Z,66.46
2022-10-02T09:37:44.409Z,65.98
2022-10-02T09:40:50.226Z,66.69
2022-10-02T09:43:52.823Z,67.68
2022-10-02T09:46:55.873Z,65.96
2022-10-02T09:50:03.221Z,65.38
2022-10-02T09:53:37.418Z,62.18
2022-10-02T09:57:00.531Z,62.22
2022-10-02T10:00:06.151Z,63.22
2022-10-02T10:03:14.434Z,62.49
2022-10-02T10:06:20.370Z,64.18
2022-10-02T10:09:22.818Z,63.25
2022-10-02T10:12:43.756Z,63.80
2022-10-02T10:15:52.932Z,64.22
2022-10-02T10:19:32.500Z,64.52
2022-10-02T10:22:57.794Z,63.27
2022-10-02T10:26:09.910Z,62.66
2022-10-02T10:29:31.996Z,63.01
2022-10-02T10:32:53.426Z,63.25
2022-10-02T10:36:06.250Z,64.39
2022-10-02T10:39:19.429Z,64.56
2022-10-02T10:42:24.309Z,63.63
2022-10-02T10:45:40.391Z,64.30
2022-10-02T10:48:49.353Z,64.04
2022-10-02T10:52:02.463Z,65.22
2022-10-02T10:55:12.497Z,65.75
2022-10-02T10:58:21.400Z,65.50
2022-10-02T11:01:24.077Z,64.50
2022-10-02T11:04:41.381Z,63.84
2022-10-02T11:08:06.012Z,63.83
2022-10-02T11:11:13.033Z,64.89
2022-10-02T11:14:41.039Z,65.01
2022-10-02T11:17:54.206Z,63.75
2022-10-02T11:21:16.927Z,64.25
2022-10-02T11:24:29.219Z,66.13
2022-10-02T11:27:57.918Z,65.22
2022-10-02T11:31:06.115Z,65.40
2022-10-02T11:34:08.759Z,64.94
2022-10-02T11:37:34.135Z,66.47
2022-10-02T11:40:39.546Z,66.40
2022-10-02T11:43:48.517Z,65.03
2022-10-02T11:46:57.860Z,64.17
2022-10-02T11:50:19.349Z,66.36
2022-10-02T11:53:29.445Z,66.70
2022-10-02T11:57:01.862Z,65.75
2022-10-02T12:00:16.169Z,60.35
2022-10-02T12:03:31.499Z,58.00
2022-10-02T12:06:42.323Z,60.16
2022-10-02T12:10:05.459Z,60.99
2022-10-02T12:13:26.187Z,55.89
2022-10-02T12:16:52.023Z,55.53
2022-10-02T12:20:19.361Z,54.62
2022-10-02T12:24:00.050Z,59.52
2022-10-02T12:27:10.987Z,57.33
2022-10-02T12:30:22.654Z,56.60
2022-10-02T12:33:34.549Z,54.64
2022-10-02T12:36:40.910Z,58.61
2022-10-02T12:40:02.223Z,58.71
2022-10-02T12:43:48.468Z,60.90
2022-10-02T12:46:51.493Z,63.65
2022-10-02T12:50:03.057Z,66.82
2022-10-02T12:53:08.618Z,68.42
2022-10-02T12:56:24.222Z,68.22
2022-10-02T12:59:50.928Z,69.44
2022-10-02T13:03:09.231Z,71.37
2022-10-02T13:06:31.700Z,73.31
2022-10-02T13:09:34.738Z,74.34
2022-10-02T13:12:56.447Z,75.13
2022-10-02T13:16:05.155Z,75.33
2022-10-02T13:19:19.443Z,76.23
2022-10-02T13:22:37.305Z,76.91
2022-10-02T13:26:04.605Z,77.75
2022-10-02T13:33:08.543Z,78.08
2022-10-02T13:36:36.251Z,77.55
2022-10-02T13:39:38.855Z,78.37
2022-10-02T13:46:28.109Z,80.39
2022-10-02T14:01:59.414Z,77.13
2022-10-02T14:09:07.452Z,76.53
2022-10-02T14:12:29.100Z,75.67
2022-10-02T14:15:37.749Z,75.54
2022-10-02T14:19:01.195Z,75.09
2022-10-02T14:22:29.683Z,76.28
2022-10-02T14:25:33.656Z,77.07
2022-10-02T14:28:39.468Z,77.84
2022-10-02T14:31:49.757Z,78.61
2022-10-02T14:34:59.194Z,78.97
2022-10-02T14:38:11.802Z,79.90
2022-10-02T14:41:21.841Z,80.92
2022-10-02T14:44:45.383Z,81.41
2022-10-02T14:48:07.310Z,81.93
2022-10-02T14:51:34.076Z,81.26
2022-10-02T14:54:57.318Z,81.88
2022-10-02T14:58:06.515Z,83.06
2022-10-02T15:01:12.081Z,82.98
2022-10-02T15:08:21.725Z,83.03
2022-10-02T15:11:04.835Z,82.91
2022-10-02T15:11:40.312Z,83.28
2022-10-02T15:14:43.668Z,83.25
2022-10-02T15:18:08.128Z,82.64
2022-10-02T15:21:26.966Z,83.23
2022-10-02T15:24:34.035Z,82.76
2022-10-02T15:28:24.121Z,83.10
2022-10-02T15:32:07.739Z,83.25
2022-10-02T15:35:39.293Z,82.92
2022-10-02T15:38:53.941Z,83.55
2022-10-02T15:43:01.168Z,82.87
2022-10-02T15:50:54.337Z,83.98
2022-10-02T15:54:19.132Z,84.38
2022-10-02T16:01:28.232Z,84.27
2022-10-02T16:04:55.676Z,85.01
2022-10-02T16:08:12.949Z,85.26
2022-10-02T16:11:31.534Z,85.10
2022-10-02T16:14:53.272Z,85.71
2022-10-02T16:18:19.993Z,86.30
2022-10-02T16:21:35.644Z,86.22
2022-10-02T16:24:44.319Z,87.73
2022-10-02T16:28:05.635Z,87.54
2022-10-02T16:31:37.217Z,87.73
2022-10-02T16:38:51.499Z,88.82
2022-10-02T16:42:02.458Z,89.49
2022-10-02T16:45:29.519Z,89.17
2022-10-02T16:48:51.339Z,89.09
2022-10-02T16:51:56.262Z,90.51
2022-10-02T16:55:24.559Z,90.00
2022-10-02T16:58:48.536Z,90.15
2022-10-02T17:02:18.058Z,90.29
2022-10-02T17:09:37.274Z,90.30
2022-10-02T17:13:08.853Z,90.88
2022-10-02T17:17:03.434Z,90.96
2022-10-02T17:20:52.652Z,91.10
2022-10-02T17:24:17.491Z,89.79
2022-10-02T17:27:45.559Z,90.81
2022-10-02T17:31:09.449Z,90.67
2022-10-02T17:34:45.176Z,91.37
2022-10-02T17:37:55.137Z,91.22
2022-10-02T17:40:57.792Z,91.11
2022-10-02T17:48:07.550Z,91.81
2022-10-02T17:55:49.382Z,91.59
2022-10-02T17:59:17.666Z,91.84
2022-10-02T18:10:00.753Z,91.75
2022-10-02T18:13:32.938Z,92.60
2022-10-02T18:16:38.120Z,92.90
2022-10-02T18:20:09.216Z,92.85
2022-10-02T18:27:01.799Z,93.02
2022-10-02T18:30:19.153Z,93.61
2022-10-02T18:33:41.019Z,93.77
2022-10-02T18:37:11.811Z,93.54
2022-10-02T18:40:23.021Z,94.57
2022-10-02T18:43:55.024Z,94.37
2022-10-02T18:46:59.488Z,95.18
2022-10-02T18:50:10.985Z,95.99
2022-10-02T18:53:23.388Z,95.09
2022-10-02T18:56:56.438Z,95.53
2022-10-02T19:00:07.688Z,95.74
2022-10-02T19:03:19.216Z,95.64
2022-10-02T19:06:36.321Z,95.45
2022-10-02T19:09:41.578Z,95.63
2022-10-02T19:12:44.770Z,96.21
2022-10-02T19:15:52.827Z,95.76
2022-10-02T19:19:14.107Z,95.81
2022-10-02T19:22:37.615Z,96.17
2022-10-02T19:25:46.642Z,96.12
2022-10-02T19:29:34.186Z,96.30
2022-10-02T19:32:43.164Z,96.11
2022-10-02T19:35:46.081Z,96.32
2022-10-02T19:39:08.038Z,96.49
2022-10-02T19:42:20.948Z,96.53
2022-10-02T19:45:26.909Z,96.63
2022-10-02T19:48:29.999Z,97.12
2022-10-02T19:51:43.013Z,98.43
2022-10-02T19:54:47.160Z,96.98
2022-10-02T19:57:50.570Z,96.53
2022-10-02T20:00:53.929Z,97.15
2022-10-02T20:03:58.019Z,97.50
2022-10-02T20:07:02.353Z,97.34
2022-10-02T20:10:16.385Z,97.31
2022-10-02T20:13:48.339Z,96.57
2022-10-02T20:17:09.161Z,96.47
2022-10-02T20:20:13.574Z,96.61
2022-10-02T20:23:17.698Z,96.78
2022-10-02T20:26:24.664Z,96.30
2022-10-02T20:29:29.137Z,96.05
2022-10-02T20:32:32.415Z,95.43
2022-10-02T20:35:37.551Z,95.73
2022-10-02T20:38:43.148Z,95.65
2022-10-02T20:41:58.908Z,95.67
2022-10-02T20:45:01.892Z,95.30
2022-10-02T20:48:13.132Z,95.47
2022-10-02T20:51:16.267Z,95.62
2022-10-02T20:54:27.668Z,95.53
2022-10-02T20:57:49.630Z,95.67
2022-10-02T21:00:59.745Z,97.16
2022-10-02T21:07:20.769Z,96.87
2022-10-02T21:10:29.450Z,96.48
2022-10-02T21:13:38.499Z,96.61
2022-10-02T21:16:50.437Z,97.17
2022-10-02T21:20:02.310Z,98.55
2022-10-02T21:23:14.852Z,97.91
2022-10-02T21:26:33.139Z,98.20
2022-10-02T21:29:55.994Z,97.60
2022-10-02T21:33:19.162Z,98.11
2022-10-02T21:36:23.677Z,97.47
2022-10-02T21:39:56.586Z,96.99
2022-10-02T21:43:24.124Z,97.40
2022-10-02T21:46:33.012Z,97.85
2022-10-02T21:49:35.884Z,97.75
2022-10-02T21:52:38.714Z,97.35
2022-10-02T21:56:05.497Z,97.60
2022-10-02T21:59:23.839Z,97.45
2022-10-02T22:02:56.420Z,97.16
2022-10-02T22:25:35.812Z,99.75
2022-10-02T22:59:22.263Z,99.57
2022-10-02T23:06:43.256Z,98.33
2022-10-02T23:10:09.231Z,97.95
2022-10-02T23:13:38.490Z,99.41
2022-10-02T23:16:53.273Z,98.27
2022-10-02T23:20:05.519Z,98.05
2022-10-02T23:23:43.676Z,98.12
2022-10-02T23:26:47.259Z,97.78
2022-10-02T23:29:56.758Z,97.28
2022-10-02T23:32:59.600Z,97.51
2022-10-02T23:36:24.537Z,97.27
2022-10-02T23:39:47.141Z,97.78
2022-10-02T23:42:55.867Z,98.24
2022-10-02T23:46:01.176Z,98.25
2022-10-02T23:49:09.504Z,99.60
2022-10-02T23:52:35.027Z,99.51
2022-10-02T23:55:47.098Z,100.00
2022-10-02T23:59:21.865Z,100.00
